createdAt,value
2018-11-28T00:03:27.315Z,17.30
2018-11-28T00:06:02.732Z,16.02
2018-11-28T00:08:38.186Z,20.65
2018-11-28T00:11:13.724Z,15.70
2018-11-28T00:13:49.059Z,19.67
2018-11-28T00:16:24.512Z,18.33
2018-11-28T00:18:59.977Z,15.83
2018-11-28T00:21:36.119Z,17.67
2018-11-28T00:24:11.488Z,17.25
2018-11-28T00:26:46.879Z,16.57
2018-11-28T00:29:22.171Z,13.50
2018-11-28T00:31:57.745Z,16.25
2018-11-28T00:34:33.255Z,24.35
2018-11-28T00:37:08.691Z,15.70
2018-11-28T00:39:44.127Z,18.67
2018-11-28T00:42:19.991Z,18.55
2018-11-28T00:44:55.292Z,17.02
2018-11-28T00:47:31.080Z,18.80
2018-11-28T00:50:12.039Z,17.17
2018-11-28T00:52:47.507Z,16.95
2018-11-28T00:55:22.999Z,16.37
2018-11-28T00:57:58.603Z,17.32
2018-11-28T01:00:34.154Z,18.50
2018-11-28T01:03:09.600Z,17.65
2018-11-28T01:05:45.062Z,18.30
2018-11-28T01:08:20.871Z,17.02
2018-11-28T01:10:56.552Z,18.52
2018-11-28T01:13:32.232Z,13.58
2018-11-28T01:16:07.985Z,22.27
2018-11-28T01:18:43.602Z,16.35
2018-11-28T01:21:19.111Z,19.00
2018-11-28T01:23:54.599Z,15.65
2018-11-28T01:26:30.149Z,17.42
2018-11-28T01:29:12.452Z,14.55
2018-11-28T01:31:47.919Z,16.27
2018-11-28T01:34:23.435Z,16.97
2018-11-28T01:36:58.903Z,15.90
2018-11-28T01:39:34.428Z,14.53
2018-11-28T01:42:09.835Z,16.30
2018-11-28T01:44:45.444Z,16.32
2018-11-28T01:47:21.171Z,18.87
2018-11-28T01:49:56.639Z,16.93
2018-11-28T01:52:31.954Z,15.20
2018-11-28T01:55:09.847Z,15.60
2018-11-28T01:57:45.178Z,15.60
2018-11-28T02:00:23.013Z,18.75
2018-11-28T02:03:01.735Z,17.05
2018-11-28T02:05:37.375Z,15.90
2018-11-28T02:08:12.787Z,12.47
2018-11-28T02:10:48.360Z,12.85
2018-11-28T02:13:24.217Z,11.63
2018-11-28T02:15:59.669Z,14.43
2018-11-28T02:18:34.880Z,13.53
2018-11-28T02:21:10.358Z,13.95
2018-11-28T02:23:52.567Z,22.00
2018-11-28T02:26:28.519Z,15.72
2018-11-28T02:29:04.019Z,13.22
2018-11-28T02:31:39.529Z,13.62
2018-11-28T02:34:15.071Z,13.05
2018-11-28T02:36:50.702Z,13.53
2018-11-28T02:39:26.160Z,13.13
2018-11-28T02:42:01.690Z,14.05
2018-11-28T02:44:37.068Z,16.10
2018-11-28T02:47:12.727Z,14.15
2018-11-28T02:49:48.363Z,13.78
2018-11-28T02:52:24.300Z,12.80
2018-11-28T02:54:59.697Z,13.53
2018-11-28T02:57:35.288Z,16.48
2018-11-28T03:00:18.768Z,13.50
2018-11-28T03:02:54.575Z,14.50
2018-11-28T03:05:29.877Z,11.68
2018-11-28T03:08:05.479Z,13.50
2018-11-28T03:10:41.050Z,12.58
2018-11-28T03:13:16.568Z,15.43
2018-11-28T03:15:54.879Z,16.75
2018-11-28T03:18:30.527Z,11.70
2018-11-28T03:21:07.615Z,15.03
2018-11-28T03:23:43.216Z,15.10
2018-11-28T03:26:18.369Z,13.75
2018-11-28T03:28:53.948Z,14.70
2018-11-28T03:31:29.337Z,15.50
2018-11-28T03:34:04.834Z,14.70
2018-11-28T03:36:40.392Z,17.70
2018-11-28T03:39:16.142Z,14.23
2018-11-28T03:41:51.715Z,12.70
2018-11-28T03:44:27.432Z,14.55
2018-11-28T03:47:02.807Z,13.22
2018-11-28T03:49:38.639Z,15.20
2018-11-28T03:52:14.056Z,17.37
2018-11-28T03:54:49.448Z,14.83
2018-11-28T03:57:24.707Z,14.10
2018-11-28T04:00:00.319Z,14.70
2018-11-28T04:02:35.778Z,14.58
2018-11-28T04:05:11.929Z,14.40
2018-11-28T04:07:47.347Z,15.25
2018-11-28T04:10:22.759Z,13.90
2018-11-28T04:12:58.335Z,14.63
2018-11-28T04:15:33.888Z,16.87
2018-11-28T04:18:09.223Z,14.60
2018-11-28T04:20:44.790Z,15.80
2018-11-28T04:23:20.245Z,13.25
2018-11-28T04:25:55.887Z,15.10
2018-11-28T04:28:31.197Z,16.10
2018-11-28T04:31:07.291Z,14.53
2018-11-28T04:33:42.615Z,13.90
2018-11-28T04:36:18.184Z,15.10
2018-11-28T04:38:53.642Z,12.88
2018-11-28T04:41:29.376Z,15.75
2018-11-28T04:44:04.710Z,14.45
2018-11-28T04:46:40.475Z,13.62
2018-11-28T04:49:15.644Z,12.75
2018-11-28T04:51:51.177Z,15.15
2018-11-28T04:54:26.685Z,12.80
2018-11-28T04:57:02.560Z,13.93
2018-11-28T04:59:37.976Z,15.78
2018-11-28T05:02:13.548Z,12.50
2018-11-28T05:04:48.897Z,15.85
2018-11-28T05:07:28.437Z,13.60
2018-11-28T05:10:04.463Z,17.40
2018-11-28T05:12:39.939Z,13.70
2018-11-28T05:15:17.620Z,14.43
2018-11-28T05:17:54.115Z,13.50
2018-11-28T05:20:31.891Z,14.40
2018-11-28T05:23:11.245Z,12.20
2018-11-28T05:25:46.779Z,14.28
2018-11-28T05:28:22.438Z,17.10
2018-11-28T05:30:57.676Z,15.25
2018-11-28T05:33:33.333Z,13.93
2018-11-28T05:36:08.657Z,13.68
2018-11-28T05:38:44.218Z,17.42
2018-11-28T05:41:19.708Z,15.32
2018-11-28T05:43:55.227Z,15.95
2018-11-28T05:46:30.851Z,13.38
2018-11-28T05:49:06.719Z,15.72
2018-11-28T05:51:42.276Z,13.28
2018-11-28T05:54:17.816Z,13.18
2018-11-28T05:56:53.002Z,19.45
2018-11-28T05:59:28.617Z,14.68
2018-11-28T06:02:04.119Z,17.07
2018-11-28T06:04:39.799Z,13.48
2018-11-28T06:07:14.990Z,15.35
2018-11-28T06:09:50.594Z,14.05
2018-11-28T06:12:26.099Z,14.13
2018-11-28T06:15:01.589Z,11.35
2018-11-28T06:17:37.119Z,14.07
2018-11-28T06:20:14.298Z,15.53
2018-11-28T06:22:49.732Z,14.33
2018-11-28T06:25:25.308Z,17.98
2018-11-28T06:28:00.676Z,13.45
2018-11-28T06:30:36.874Z,11.18
2018-11-28T06:33:12.238Z,11.22
2018-11-28T06:35:47.906Z,11.60
2018-11-28T06:38:23.462Z,13.22
2018-11-28T06:40:59.203Z,19.85
2018-11-28T06:43:34.703Z,11.97
2018-11-28T06:46:10.181Z,12.40
2018-11-28T06:48:45.639Z,16.82
2018-11-28T06:51:21.419Z,11.88
2018-11-28T06:53:56.867Z,9.38
2018-11-28T06:56:32.503Z,15.00
2018-11-28T06:59:07.705Z,13.48
2018-11-28T07:01:43.408Z,14.13
2018-11-28T07:04:18.879Z,14.80
2018-11-28T07:06:54.321Z,12.45
2018-11-28T07:09:29.791Z,13.08
2018-11-28T07:12:05.373Z,12.68
2018-11-28T07:14:40.626Z,17.65
2018-11-28T07:17:16.255Z,16.52
2018-11-28T07:19:51.608Z,14.45
2018-11-28T07:22:27.147Z,12.85
2018-11-28T07:25:02.610Z,9.03
2018-11-28T07:27:38.248Z,13.20
2018-11-28T07:30:28.456Z,13.32
2018-11-28T07:33:04.084Z,12.50
2018-11-28T07:35:40.886Z,14.38
2018-11-28T07:38:16.517Z,14.95
2018-11-28T07:40:51.856Z,11.03
2018-11-28T07:43:27.408Z,13.75
2018-11-28T07:46:03.671Z,15.93
2018-11-28T07:48:39.360Z,12.80
2018-11-28T07:51:14.895Z,15.95
2018-11-28T07:53:50.422Z,15.78
2018-11-28T07:56:25.732Z,13.08
2018-11-28T07:59:01.372Z,15.50
2018-11-28T08:01:36.619Z,13.80
2018-11-28T08:04:12.063Z,16.00
2018-11-28T08:06:47.500Z,21.37
2018-11-28T08:09:23.080Z,14.60
2018-11-28T08:11:58.319Z,13.90
2018-11-28T08:14:33.869Z,16.52
2018-11-28T08:17:09.360Z,16.10
2018-11-28T08:19:44.982Z,14.10
2018-11-28T08:22:20.795Z,15.23
2018-11-28T08:24:56.363Z,17.75
2018-11-28T08:27:32.021Z,14.70
2018-11-28T08:30:16.064Z,14.40
2018-11-28T08:32:51.724Z,18.77
2018-11-28T08:35:27.355Z,16.48
2018-11-28T08:38:02.551Z,14.93
2018-11-28T08:40:38.142Z,14.00
2018-11-28T08:43:13.577Z,16.32
2018-11-28T08:45:49.576Z,14.90
2018-11-28T08:48:25.017Z,15.23
2018-11-28T08:51:00.646Z,14.13
2018-11-28T08:53:58.605Z,18.35
2018-11-28T08:56:34.303Z,15.60
2018-11-28T08:59:09.961Z,15.15
2018-11-28T09:01:45.587Z,15.20
2018-11-28T09:04:21.128Z,13.22
2018-11-28T09:06:56.492Z,14.23
2018-11-28T09:09:32.020Z,15.60
2018-11-28T09:12:07.441Z,14.87
2018-11-28T09:14:43.111Z,16.30
2018-11-28T09:17:18.774Z,17.12
2018-11-28T09:19:54.823Z,17.80
2018-11-28T09:22:30.661Z,20.10
2018-11-28T09:25:07.960Z,20.85
2018-11-28T09:27:44.588Z,19.42
2018-11-28T09:30:20.797Z,20.23
2018-11-28T09:32:56.202Z,20.65
2018-11-28T09:35:31.995Z,19.05
2018-11-28T09:38:07.319Z,19.02
2018-11-28T09:40:42.789Z,20.50
2018-11-28T09:43:18.308Z,24.57
2018-11-28T09:45:54.084Z,21.12
2018-11-28T09:48:29.635Z,22.00
2018-11-28T09:51:05.173Z,19.77
2018-11-28T09:53:40.703Z,23.22
2018-11-28T09:56:16.276Z,23.18
2018-11-28T09:58:51.539Z,24.67
2018-11-28T10:01:26.955Z,24.32
2018-11-28T10:04:02.296Z,26.42
2018-11-28T10:06:43.235Z,29.12
2018-11-28T10:09:18.389Z,32.53
2018-11-28T10:11:53.855Z,30.68
2018-11-28T10:14:29.443Z,29.92
2018-11-28T10:17:05.262Z,30.32
2018-11-28T10:19:40.776Z,28.15
2018-11-28T10:22:16.250Z,34.20
2018-11-28T10:24:51.755Z,28.62
2018-11-28T10:27:27.350Z,29.82
2018-11-28T10:30:02.827Z,32.58
2018-11-28T10:32:38.438Z,32.88
2018-11-28T10:35:13.850Z,35.25
2018-11-28T10:37:49.559Z,36.88
2018-11-28T10:40:25.495Z,38.73
2018-11-28T10:43:01.611Z,35.20
2018-11-28T10:45:37.379Z,38.38
2018-11-28T10:48:13.581Z,38.00
2018-11-28T10:50:48.934Z,40.58
2018-11-28T10:53:24.488Z,45.23
2018-11-28T10:55:59.686Z,44.45
2018-11-28T10:58:35.347Z,37.40
2018-11-28T11:01:16.143Z,42.90
2018-11-28T11:03:55.220Z,48.33
2018-11-28T11:06:35.840Z,46.98
2018-11-28T11:11:19.467Z,42.38
2018-11-28T11:14:00.350Z,43.42
2018-11-28T11:16:35.726Z,48.75
2018-11-28T11:19:11.535Z,44.65
2018-11-28T11:21:47.583Z,45.55
2018-11-28T11:24:23.143Z,45.98
2018-11-28T11:26:58.655Z,42.78
2018-11-28T11:29:34.239Z,43.87
2018-11-28T11:32:09.593Z,39.65
2018-11-28T11:34:45.439Z,42.27
2018-11-28T11:37:21.318Z,39.18
2018-11-28T11:39:57.362Z,47.85
2018-11-28T11:42:32.415Z,45.12
2018-11-28T11:45:11.443Z,49.95
2018-11-28T11:47:46.949Z,53.55
2018-11-28T11:50:22.512Z,41.45
2018-11-28T11:52:57.963Z,41.25
2018-11-28T11:55:34.185Z,43.73
2018-11-28T11:58:09.686Z,45.88
2018-11-28T12:00:47.777Z,47.55
2018-11-28T12:03:23.437Z,40.45
2018-11-28T12:05:59.879Z,40.35
2018-11-28T12:08:35.768Z,43.42
2018-11-28T12:11:12.191Z,38.35
2018-11-28T12:13:47.912Z,47.25
2018-11-28T12:16:23.653Z,41.30
2018-11-28T12:18:59.608Z,40.88
2018-11-28T12:21:35.262Z,40.33
2018-11-28T12:24:11.583Z,41.10
2018-11-28T12:26:46.945Z,43.00
2018-11-28T12:29:22.800Z,37.35
2018-11-28T12:31:58.131Z,37.50
2018-11-28T12:34:33.608Z,44.38
2018-11-28T12:37:08.946Z,39.45
2018-11-28T12:39:45.285Z,39.85
2018-11-28T12:42:21.000Z,39.60
2018-11-28T12:44:57.649Z,41.02
2018-11-28T12:47:33.127Z,35.60
2018-11-28T12:50:23.668Z,36.75
2018-11-28T12:53:00.748Z,35.98
2018-11-28T12:55:37.527Z,35.73
2018-11-28T12:58:15.508Z,35.33
2018-11-28T13:00:51.069Z,38.48
2018-11-28T13:03:26.547Z,44.83
2018-11-28T13:06:02.147Z,35.75
2018-11-28T13:08:39.241Z,35.15
2018-11-28T13:11:14.820Z,40.17
2018-11-28T13:13:50.219Z,37.10
2018-11-28T13:16:25.787Z,37.95
2018-11-28T13:19:01.141Z,34.00
2018-11-28T13:21:36.680Z,38.25
2018-11-28T13:24:11.903Z,35.15
2018-11-28T13:26:47.567Z,37.38
2018-11-28T13:29:23.251Z,36.85
2018-11-28T13:31:58.989Z,34.48
2018-11-28T13:34:34.251Z,35.55
2018-11-28T13:37:09.758Z,34.83
2018-11-28T13:39:45.103Z,36.17
2018-11-28T13:42:20.848Z,33.48
2018-11-28T13:44:56.279Z,35.63
2018-11-28T13:47:38.619Z,30.57
2018-11-28T13:50:13.951Z,35.85
2018-11-28T13:52:49.975Z,29.72
2018-11-28T13:55:38.357Z,32.75
2018-11-28T13:58:11.958Z,35.63
2018-11-28T14:00:47.717Z,39.60
2018-11-28T14:03:23.464Z,33.05
2018-11-28T14:05:59.221Z,33.53
2018-11-28T14:08:34.623Z,29.18
2018-11-28T14:11:10.200Z,32.55
2018-11-28T14:13:45.663Z,32.70
2018-11-28T14:16:21.403Z,29.50
2018-11-28T14:18:56.735Z,30.50
2018-11-28T14:21:32.604Z,31.52
2018-11-28T14:24:08.043Z,32.78
2018-11-28T14:26:43.692Z,29.87
2018-11-28T14:29:19.157Z,31.75
2018-11-28T14:31:55.012Z,29.60
2018-11-28T14:34:30.335Z,32.85
2018-11-28T14:37:06.296Z,34.90
2018-11-28T14:39:41.854Z,32.17
2018-11-28T14:42:17.595Z,30.00
2018-11-28T14:44:52.946Z,30.70
2018-11-28T14:47:28.792Z,37.20
2018-11-28T14:50:05.558Z,27.65
2018-11-28T14:52:41.115Z,33.45
2018-11-28T14:55:19.579Z,36.77
2018-11-28T14:57:55.186Z,33.45
2018-11-28T15:00:31.551Z,28.98
2018-11-28T15:03:14.802Z,38.20
2018-11-28T15:08:01.397Z,33.40
2018-11-28T15:11:11.435Z,29.32
2018-11-28T15:13:47.003Z,38.38
2018-11-28T15:16:22.288Z,31.23
2018-11-28T15:18:57.991Z,30.97
2018-11-28T15:21:33.883Z,33.33
2018-11-28T15:24:09.499Z,29.10
2018-11-28T15:26:44.919Z,29.32
2018-11-28T15:29:20.601Z,34.95
2018-11-28T15:31:56.056Z,27.45
2018-11-28T15:34:31.800Z,31.85
2018-11-28T15:37:07.901Z,33.85
2018-11-28T15:39:43.607Z,32.95
2018-11-28T15:42:19.015Z,30.30
2018-11-28T15:44:54.602Z,32.15
2018-11-28T15:47:30.284Z,36.95
2018-11-28T15:50:07.136Z,36.00
2018-11-28T15:52:42.814Z,28.15
2018-11-28T15:55:18.329Z,31.85
2018-11-28T15:57:53.802Z,33.08
2018-11-28T16:00:29.333Z,32.20
2018-11-28T16:03:04.773Z,31.55
2018-11-28T16:05:40.511Z,31.12
2018-11-28T16:08:15.994Z,36.93
2018-11-28T16:10:51.679Z,35.25
2018-11-28T16:13:27.187Z,34.30
2018-11-28T16:16:02.925Z,31.05
2018-11-28T16:18:38.471Z,36.68
2018-11-28T16:21:14.107Z,33.58
2018-11-28T16:23:49.567Z,37.63
2018-11-28T16:26:25.195Z,35.58
2018-11-28T16:29:00.555Z,35.23
2018-11-28T16:31:36.191Z,36.23
2018-11-28T16:34:11.384Z,35.92
2018-11-28T16:36:46.841Z,40.33
2018-11-28T16:39:22.252Z,39.92
2018-11-28T16:41:57.892Z,33.85
2018-11-28T16:44:33.355Z,40.00
2018-11-28T16:47:09.273Z,37.20
2018-11-28T16:49:44.583Z,35.95
2018-11-28T16:52:20.165Z,38.48
2018-11-28T16:54:55.360Z,33.58
2018-11-28T16:57:30.855Z,35.10
2018-11-28T17:00:10.684Z,36.42
2018-11-28T17:02:46.344Z,33.18
2018-11-28T17:05:23.315Z,35.33
2018-11-28T17:07:58.775Z,31.17
2018-11-28T17:10:34.099Z,32.40
2018-11-28T17:13:09.665Z,34.55
2018-11-28T17:15:45.012Z,34.98
2018-11-28T17:18:20.654Z,35.52
2018-11-28T17:20:56.326Z,39.18
2018-11-28T17:23:38.110Z,34.45
2018-11-28T17:26:13.623Z,32.63
2018-11-28T17:28:49.191Z,37.73
2018-11-28T17:31:24.523Z,34.30
2018-11-28T17:34:00.102Z,31.23
2018-11-28T17:36:35.570Z,32.33
2018-11-28T17:39:13.553Z,36.85
2018-11-28T17:41:48.991Z,32.93
2018-11-28T17:44:24.433Z,36.13
2018-11-28T17:46:59.979Z,40.73
2018-11-28T17:49:35.626Z,31.90
2018-11-28T17:52:10.861Z,36.80
2018-11-28T17:54:46.414Z,33.90
2018-11-28T17:57:21.819Z,37.60
2018-11-28T17:59:57.303Z,39.53
2018-11-28T18:02:32.723Z,35.73
2018-11-28T18:05:10.036Z,35.28
2018-11-28T18:07:45.710Z,61.02
2018-11-28T18:10:22.589Z,38.83
2018-11-28T18:13:08.645Z,36.03
2018-11-28T18:15:53.408Z,30.97
2018-11-28T18:18:28.782Z,29.65
2018-11-28T18:21:04.318Z,33.53
2018-11-28T18:23:40.902Z,31.80
2018-11-28T18:26:16.426Z,36.60
2018-11-28T18:28:51.851Z,35.15
2018-11-28T18:31:27.330Z,35.43
2018-11-28T18:34:02.871Z,35.68
2018-11-28T18:36:38.375Z,30.95
2018-11-28T18:39:13.864Z,37.48
2018-11-28T18:41:49.326Z,30.35
2018-11-28T18:44:24.974Z,35.63
2018-11-28T18:47:00.719Z,33.75
2018-11-28T18:49:36.587Z,28.90
2018-11-28T18:52:11.935Z,34.20
2018-11-28T18:54:47.451Z,33.25
2018-11-28T18:57:22.920Z,40.80
2018-11-28T18:59:58.674Z,38.53
2018-11-28T19:02:34.059Z,31.37
2018-11-28T19:05:09.744Z,35.43
2018-11-28T19:07:45.131Z,37.73
2018-11-28T19:10:26.394Z,31.27
2018-11-28T19:12:57.834Z,31.55
2018-11-28T19:15:33.500Z,42.25
2018-11-28T19:18:08.788Z,30.95
2018-11-28T19:20:44.391Z,34.08
2018-11-28T19:23:19.713Z,38.20
2018-11-28T19:25:55.478Z,32.00
2018-11-28T19:28:30.947Z,35.73
2018-11-28T19:31:06.941Z,30.68
2018-11-28T19:33:42.343Z,30.80
2018-11-28T19:36:17.851Z,33.88
2018-11-28T19:38:53.292Z,29.65
2018-11-28T19:41:28.775Z,37.80
2018-11-28T19:44:04.299Z,28.23
2018-11-28T19:46:39.935Z,31.12
2018-11-28T19:49:15.279Z,33.60
2018-11-28T19:51:50.706Z,35.43
2018-11-28T19:54:25.899Z,39.53
2018-11-28T19:57:01.413Z,33.10
2018-11-28T19:59:36.866Z,34.78
2018-11-28T20:02:12.392Z,36.65
2018-11-28T20:04:47.841Z,37.08
2018-11-28T20:07:23.418Z,34.90
2018-11-28T20:09:59.251Z,30.55
2018-11-28T20:12:34.899Z,34.53
2018-11-28T20:15:14.426Z,32.73
2018-11-28T20:17:50.134Z,30.20
2018-11-28T20:20:25.697Z,32.80
2018-11-28T20:23:01.205Z,29.85
2018-11-28T20:25:37.175Z,42.40
2018-11-28T20:28:12.658Z,32.40
2018-11-28T20:30:48.163Z,32.13
2018-11-28T20:33:23.798Z,31.68
2018-11-28T20:35:59.261Z,33.10
2018-11-28T20:38:35.908Z,38.13
2018-11-28T20:41:11.396Z,37.48
2018-11-28T20:43:47.131Z,35.25
2018-11-28T20:46:22.588Z,31.02
2018-11-28T20:48:58.312Z,34.45
2018-11-28T20:51:34.998Z,32.80
2018-11-28T20:54:10.556Z,35.98
2018-11-28T20:56:46.099Z,32.05
2018-11-28T20:59:21.961Z,35.43
2018-11-28T21:01:57.529Z,35.83
2018-11-28T21:04:33.741Z,34.13
2018-11-28T21:07:09.271Z,32.17
2018-11-28T21:09:50.112Z,33.92
2018-11-28T21:12:26.239Z,33.75
2018-11-28T21:15:02.018Z,38.02
2018-11-28T21:17:37.427Z,37.98
2018-11-28T21:20:15.201Z,30.60
2018-11-28T21:22:57.697Z,33.70
2018-11-28T21:25:33.292Z,38.15
2018-11-28T21:28:08.627Z,32.65
2018-11-28T21:30:44.166Z,32.20
2018-11-28T21:33:19.427Z,32.98
2018-11-28T21:35:55.288Z,39.27
2018-11-28T21:38:30.635Z,34.35
2018-11-28T21:41:06.570Z,27.80
2018-11-28T21:43:42.200Z,34.38
2018-11-28T21:46:18.375Z,31.33
2018-11-28T21:48:54.147Z,32.03
2018-11-28T21:51:29.822Z,34.67
2018-11-28T21:54:05.713Z,31.82
2018-11-28T21:56:41.174Z,33.53
2018-11-28T21:59:16.683Z,38.88
2018-11-28T22:01:52.170Z,36.73
2018-11-28T22:04:27.476Z,34.85
2018-11-28T22:07:03.159Z,38.33
2018-11-28T22:09:38.595Z,37.33
2018-11-28T22:12:13.947Z,33.30
2018-11-28T22:14:49.483Z,33.20
2018-11-28T22:17:31.608Z,39.78
2018-11-28T22:20:09.819Z,32.13
2018-11-28T22:22:45.259Z,31.97
2018-11-28T22:25:25.807Z,30.57
2018-11-28T22:28:01.271Z,34.03
2018-11-28T22:30:36.627Z,31.80
2018-11-28T22:33:12.051Z,33.35
2018-11-28T22:35:47.438Z,45.73
2018-11-28T22:38:23.004Z,33.18
2018-11-28T22:40:58.399Z,34.85
2018-11-28T22:43:33.833Z,32.35
2018-11-28T22:46:09.068Z,32.40
2018-11-28T22:48:44.955Z,32.50
2018-11-28T22:51:20.423Z,33.05
2018-11-28T22:53:56.123Z,35.13
2018-11-28T22:56:38.303Z,33.78
2018-11-28T22:59:13.923Z,31.55
2018-11-28T23:03:58.750Z,29.20
2018-11-28T23:06:34.121Z,33.00
2018-11-28T23:09:09.946Z,33.58
2018-11-28T23:11:45.173Z,35.13
2018-11-28T23:14:20.848Z,32.48
2018-11-28T23:16:56.315Z,38.63
2018-11-28T23:19:31.831Z,35.50
2018-11-28T23:22:07.243Z,29.40
2018-11-28T23:24:42.822Z,39.73
2018-11-28T23:27:18.355Z,32.70
2018-11-28T23:29:54.035Z,35.83
2018-11-28T23:32:29.725Z,34.50
2018-11-28T23:35:06.351Z,31.33
2018-11-28T23:37:43.154Z,32.30
2018-11-28T23:40:26.247Z,29.65
2018-11-28T23:43:01.674Z,33.40
2018-11-28T23:45:37.165Z,35.70
2018-11-28T23:48:12.699Z,33.08
2018-11-28T23:50:48.289Z,36.75
2018-11-28T23:53:23.596Z,38.05
2018-11-28T23:55:59.133Z,36.03
2018-11-28T23:58:34.478Z,33.55
